.
WxDataArchive / Data Records for 2011-12-12
2011-12-11 December 2011 2011-12-13

Data Records for Monday, 12 December 2011

Time	Temp	Chill	HIndex	Humid	Dewpt	 Wind 	HiWind	WindDir	Rain 	Barom 
-----	----	-----	------	-----	-----	------	------	-------	-----	----- 
00:00	21.1	21.1	21.1	85	17.3	0	0	---	0.00	30.474 
00:05	21.1	21.1	21.1	85	17.3	0	0	---	0.00	30.474 
00:10	21.3	21.3	21.3	86	17.8	0	0	---	0.00	30.474 
00:15	21.4	21.4	21.4	86	17.9	0	0	---	0.00	30.470 
00:20	21.4	21.4	21.4	86	17.9	0	0	---	0.00	30.470 
00:25	21.4	21.4	21.4	86	17.9	0	0	---	0.00	30.470 
00:30	21.4	21.4	21.4	85	17.6	0	0	---	0.00	30.474 
00:35	21.6	21.6	21.6	85	17.8	0	0	---	0.00	30.474 
00:40	21.6	21.6	21.6	85	17.8	0	0	---	0.00	30.474 
00:45	21.6	21.6	21.6	85	17.8	0	0	---	0.00	30.470 
00:50	21.6	21.6	21.6	85	17.8	0	0	---	0.00	30.470 
00:55	21.6	21.6	21.6	85	17.8	0	0	---	0.00	30.470 
01:00	21.6	21.6	21.6	84	17.5	0	0	---	0.00	30.468 
01:05	21.6	21.6	21.6	84	17.5	0	0	---	0.00	30.468 
01:10	21.6	21.6	21.6	84	17.5	0	0	---	0.00	30.468 
01:15	21.6	21.6	21.6	84	17.5	0	0	---	0.00	30.459 
01:20	21.4	21.4	21.4	83	17.1	0	0	---	0.00	30.459 
01:25	21.3	21.3	21.3	83	17.0	0	0	---	0.00	30.459 
01:30	21.1	21.1	21.1	83	16.8	0	0	---	0.00	30.458 
01:35	21.1	21.1	21.1	84	17.0	0	0	---	0.00	30.458 
01:40	21.1	21.1	21.1	84	17.0	0	0	---	0.00	30.458 
01:45	21.1	21.1	21.1	84	17.0	0	0	---	0.00	30.456 
01:50	21.0	21.0	21.0	83	16.7	0	0	---	0.00	30.456 
01:55	20.8	20.8	20.8	83	16.5	0	0	---	0.00	30.456 
02:00	20.8	20.8	20.8	83	16.5	0	0	---	0.00	30.453 
02:05	20.6	20.6	20.6	83	16.3	0	0	---	0.00	30.453 
02:10	20.6	20.6	20.6	84	16.5	0	0	---	0.00	30.453 
02:15	20.5	20.5	20.5	84	16.4	0	0	---	0.00	30.454 
02:20	20.5	20.5	20.5	84	16.4	0	0	---	0.00	30.454 
02:25	20.5	20.5	20.5	84	16.4	0	0	---	0.00	30.454 
02:30	20.3	20.3	20.3	83	16.0	0	0	---	0.00	30.455 
02:35	20.3	20.3	20.3	83	16.0	0	0	---	0.00	30.455 
02:40	20.2	20.2	20.2	83	15.9	0	0	---	0.00	30.455 
02:45	20.0	20.0	20.0	83	15.7	0	0	---	0.00	30.455 
02:50	20.0	20.0	20.0	83	15.7	0	0	---	0.00	30.455 
02:55	19.9	19.9	19.9	84	15.9	0	0	---	0.00	30.455 
03:00	19.7	19.7	19.7	84	15.7	0	0	---	0.00	30.457 
03:05	19.7	19.7	19.7	84	15.7	0	0	---	0.00	30.457 
03:10	19.7	19.7	19.7	84	15.7	0	0	---	0.00	30.457 
03:15	19.7	19.7	19.7	84	15.7	0	0	---	0.00	30.459 
03:20	19.5	19.5	19.5	84	15.5	0	0	---	0.00	30.459 
03:25	19.5	19.5	19.5	84	15.5	0	0	---	0.00	30.459 
03:30	19.5	19.5	19.5	84	15.5	0	0	---	0.00	30.457 
03:35	19.4	19.4	19.4	84	15.4	0	0	---	0.00	30.457 
03:40	19.2	19.2	19.2	84	15.2	0	0	---	0.00	30.457 
03:45	19.2	19.2	19.2	84	15.2	0	0	---	0.00	30.458 
03:50	19.1	19.1	19.1	85	15.3	0	0	---	0.00	30.458 
03:55	19.1	19.1	19.1	85	15.3	0	0	---	0.00	30.458 
04:00	18.9	18.9	18.9	85	15.2	0	0	---	0.00	30.454 
04:05	18.9	18.9	18.9	85	15.2	0	0	---	0.00	30.454 
04:10	18.9	18.9	18.9	85	15.2	0	0	---	0.00	30.454 
04:15	18.8	18.8	18.8	85	15.1	0	0	---	0.00	30.457 
04:20	18.8	18.8	18.8	85	15.1	0	0	---	0.00	30.457 
04:25	18.8	18.8	18.8	85	15.1	0	0	---	0.00	30.457 
04:30	18.6	18.6	18.6	85	14.9	0	0	---	0.00	30.460 
04:35	18.6	18.6	18.6	86	15.1	0	0	---	0.00	30.460 
04:40	18.4	18.4	18.4	86	14.9	0	0	---	0.00	30.460 
04:45	18.4	18.4	18.4	86	14.9	0	0	---	0.00	30.461 
04:50	18.4	18.4	18.4	86	14.9	0	0	---	0.00	30.461 
04:55	18.3	18.3	18.3	86	14.8	0	0	---	0.00	30.461 
05:00	18.3	18.3	18.3	86	14.8	0	0	---	0.00	30.458 
05:05	18.3	18.3	18.3	86	14.8	0	0	---	0.00	30.458 
05:10	18.3	18.3	18.3	86	14.8	0	0	---	0.00	30.458 
05:15	18.3	18.3	18.3	87	15.1	0	0	---	0.00	30.467 
05:20	18.3	18.3	18.3	87	15.1	0	0	---	0.00	30.467 
05:25	18.1	18.1	18.1	87	14.9	0	0	---	0.00	30.467 
05:30	18.1	18.1	18.1	87	14.9	0	0	---	0.00	30.470 
05:35	18.0	18.0	18.0	87	14.8	0	0	---	0.00	30.470 
05:40	18.0	18.0	18.0	87	14.8	0	0	---	0.00	30.470 
05:45	17.8	17.8	17.8	87	14.6	0	0	---	0.00	30.468 
05:50	17.7	17.7	17.7	87	14.5	0	0	---	0.00	30.468 
05:55	17.7	17.7	17.7	87	14.5	0	0	---	0.00	30.468 
06:00	17.7	17.7	17.7	87	14.5	0	0	---	0.00	30.471 
06:05	17.5	17.5	17.5	87	14.3	0	0	---	0.00	30.471 
06:10	17.5	17.5	17.5	87	14.3	0	0	---	0.00	30.471 
06:15	17.5	17.5	17.5	88	14.6	0	0	---	0.00	30.474 
06:20	17.5	17.5	17.5	88	14.6	0	0	---	0.00	30.474 
06:25	17.5	17.5	17.5	88	14.6	0	0	---	0.00	30.474 
06:30	17.5	17.5	17.5	88	14.6	0	0	---	0.00	30.481 
06:35	17.5	17.5	17.5	88	14.6	0	0	---	0.00	30.481 
06:40	17.3	17.3	17.3	88	14.4	0	0	---	0.00	30.481 
06:45	17.3	17.3	17.3	88	14.4	0	0	---	0.00	30.485 
06:50	17.3	17.3	17.3	88	14.4	0	0	---	0.00	30.485 
06:55	17.2	17.2	17.2	88	14.3	0	0	---	0.00	30.485 
07:00	17.3	17.3	17.3	88	14.4	0	0	---	0.00	30.485 
07:05	17.3	17.3	17.3	88	14.4	0	0	---	0.00	30.485 
07:10	17.3	17.3	17.3	88	14.4	0	0	---	0.00	30.485 
07:15	17.3	17.3	17.3	88	14.4	0	0	---	0.00	30.488 
07:20	17.3	17.3	17.3	88	14.4	0	0	---	0.00	30.488 
07:25	17.2	17.2	17.2	88	14.3	0	0	---	0.00	30.488 
07:30	17.0	17.0	17.0	88	14.1	0	0	---	0.00	30.491 
07:35	17.0	17.0	17.0	88	14.1	0	0	---	0.00	30.491 
07:40	16.9	16.9	16.9	88	14.0	0	0	---	0.00	30.491 
07:45	16.9	16.9	16.9	88	14.0	0	0	---	0.00	30.496 
07:50	17.0	17.0	17.0	89	14.3	0	0	---	0.00	30.496 
07:55	17.0	17.0	17.0	88	14.1	0	0	---	0.00	30.496 
08:00	17.0	17.0	17.0	88	14.1	0	0	---	0.00	30.493 
08:05	17.2	17.2	17.2	89	14.5	0	0	---	0.00	30.493 
08:10	17.2	17.2	17.2	88	14.3	0	0	---	0.00	30.493 
08:15	17.2	17.2	17.2	88	14.3	0	0	---	0.00	30.494 
08:20	17.3	17.3	17.3	89	14.6	0	0	---	0.00	30.494 
08:25	17.3	17.3	17.3	88	14.4	0	0	---	0.00	30.494 
08:30	17.5	17.5	17.5	89	14.8	0	0	---	0.00	30.492 
08:35	17.7	17.7	17.7	89	15.0	0	0	---	0.00	30.492 
08:40	18.0	18.0	18.0	89	15.3	0	0	---	0.00	30.492 
08:45	18.3	18.3	18.3	89	15.6	0	0	---	0.00	30.494 
08:50	18.6	18.6	18.6	89	15.9	0	0	---	0.00	30.494 
08:55	18.9	18.9	18.9	90	16.5	0	0	---	0.00	30.494 
09:00	19.2	19.2	19.2	90	16.8	0	0	---	0.00	30.498 
09:05	19.7	19.7	19.7	90	17.3	0	0	---	0.00	30.498 
09:10	20.2	20.2	20.2	90	17.7	0	0	---	0.00	30.498 
09:15	20.8	20.8	20.8	90	18.3	0	0	---	0.00	30.502 
09:20	21.4	21.4	21.4	90	18.9	0	0	---	0.00	30.502 
09:25	21.9	21.9	21.9	90	19.4	0	0	---	0.00	30.502 
09:30	22.4	22.4	22.4	90	19.9	0	0	---	0.00	30.502 
09:35	22.9	22.9	22.9	91	20.7	0	0	---	0.00	30.502 
09:40	23.6	23.6	23.6	90	21.1	0	0	---	0.00	30.502 
09:45	24.2	24.2	24.2	89	21.4	0	1	112	0.00	30.501 
09:50	25.0	25.0	25.0	87	21.7	0	1	112	0.00	30.501 
09:55	25.7	25.7	25.7	84	21.5	0	1	112	0.00	30.501 
10:00	26.3	26.3	26.3	82	21.6	0	1	112	0.00	30.503 
10:05	26.9	26.9	26.9	80	21.6	0	1	112	0.00	30.503 
10:10	27.6	27.6	27.6	76	21.0	0	1	112	0.00	30.503 
10:15	28.4	28.4	28.4	74	21.2	0	1	112	0.00	30.502 
10:20	29.1	29.1	29.1	72	21.2	0	1	112	0.00	30.502 
10:25	29.5	29.5	29.5	72	21.6	0	1	112	0.00	30.502 
10:30	30.1	30.1	30.1	70	21.5	0	1	112	0.00	30.499 
10:35	30.6	30.6	30.6	67	21.0	0	2	112	0.00	30.499 
10:40	30.9	30.9	30.9	65	20.5	0	0	---	0.00	30.499 
10:45	31.3	31.3	31.3	63	20.2	0	0	---	0.00	30.499 
10:50	31.8	31.8	31.8	62	20.3	0	0	---	0.00	30.499 
10:55	32.2	32.2	32.2	62	20.7	0	0	---	0.00	30.499 
11:00	32.7	32.7	32.7	59	20.0	0	1	112	0.00	30.492 
11:05	33.4	33.4	33.4	58	20.2	0	1	112	0.00	30.492 
11:10	34.1	34.1	34.1	57	20.5	0	1	112	0.00	30.492 
11:15	34.9	34.9	34.9	54	20.0	0	1	112	0.00	30.490 
11:20	35.5	35.5	35.5	53	20.1	0	1	112	0.00	30.490 
11:25	35.8	35.8	35.8	52	19.9	0	1	112	0.00	30.490 
11:30	36.0	36.0	36.0	50	19.2	0	3	270	0.00	30.489 
11:35	36.3	36.3	36.3	50	19.5	0	1	270	0.00	30.489 
11:40	36.6	36.6	36.6	50	19.7	0	1	270	0.00	30.489 
11:45	36.9	36.9	36.9	49	19.5	0	1	270	0.00	30.484 
11:50	37.2	37.2	37.2	48	19.3	0	2	270	0.00	30.484 
11:55	37.6	37.6	37.6	48	19.7	0	1	270	0.00	30.484 
12:00	37.9	37.9	37.9	46	19.0	1	2	270	0.00	30.478 
12:05	38.2	38.2	38.2	45	18.8	0	2	270	0.00	30.478 
12:10	38.2	38.2	38.2	44	18.2	0	3	270	0.00	30.478 
12:15	38.3	38.3	38.3	44	18.3	0	2	270	0.00	30.470 
12:20	38.5	38.5	38.5	45	19.0	0	2	270	0.00	30.470 
12:25	38.9	38.9	38.9	45	19.4	0	2	270	0.00	30.470 
12:30	38.9	38.9	38.9	42	17.8	0	1	270	0.00	30.465 
12:35	39.2	39.2	39.2	42	18.1	0	1	270	0.00	30.465 
12:40	39.3	39.3	39.3	43	18.7	0	1	270	0.00	30.465 
12:45	39.5	39.5	39.5	42	18.3	0	0	---	0.00	30.453 
12:50	39.5	39.5	39.5	41	17.8	0	0	---	0.00	30.453 
12:55	39.6	39.6	39.6	44	19.5	0	0	---	0.00	30.453 
13:00	39.6	39.6	39.6	43	19.0	0	0	---	0.00	30.448 
13:05	39.6	39.6	39.6	43	19.0	0	2	270	0.00	30.448 
13:10	39.6	39.6	39.6	42	18.4	0	2	270	0.00	30.448 
13:15	39.9	39.9	39.9	42	18.7	1	3	68	0.00	30.441 
13:20	40.2	40.2	40.2	43	19.5	0	1	68	0.00	30.441 
13:25	40.3	40.3	40.3	42	19.1	0	3	68	0.00	30.441 
13:30	40.6	40.6	40.6	45	20.9	0	1	68	0.00	30.435 
13:35	40.6	40.6	40.6	43	19.9	0	3	68	0.00	30.435 
13:40	40.6	40.6	40.6	44	20.4	1	3	68	0.00	30.435 
13:45	40.5	40.5	40.5	44	20.3	0	2	68	0.00	30.430 
13:50	40.5	40.5	40.5	44	20.3	0	2	68	0.00	30.430 
13:55	40.5	40.5	40.5	46	21.4	1	3	68	0.00	30.430 
14:00	40.5	40.5	40.5	44	20.3	0	2	112	0.00	30.431 
14:05	40.6	40.6	40.6	46	21.5	0	3	112	0.00	30.431 
14:10	40.6	40.6	40.6	47	22.0	0	2	135	0.00	30.431 
14:15	40.8	40.8	40.8	47	22.1	0	1	135	0.00	30.434 
14:20	40.8	40.8	40.8	45	21.1	0	3	112	0.00	30.434 
14:25	40.6	40.6	40.6	44	20.4	1	2	112	0.00	30.434 
14:30	40.5	40.5	40.5	45	20.8	0	2	112	0.00	30.434 
14:35	40.2	40.2	40.2	47	21.6	0	1	112	0.00	30.434 
14:40	40.1	40.1	40.1	47	21.5	0	2	112	0.00	30.434 
14:45	40.2	40.2	40.2	46	21.1	0	2	112	0.00	30.432 
14:50	40.1	40.1	40.1	46	21.0	0	2	112	0.00	30.432 
14:55	39.9	39.9	39.9	47	21.3	0	2	112	0.00	30.432 
15:00	39.9	39.9	39.9	47	21.3	0	2	112	0.00	30.437 
15:05	39.9	39.9	39.9	48	21.8	0	1	112	0.00	30.437 
15:10	40.1	40.1	40.1	48	22.0	0	2	112	0.00	30.437 
15:15	40.1	40.1	40.1	47	21.5	0	3	112	0.00	30.436 
15:20	39.9	39.9	39.9	48	21.8	0	1	112	0.00	30.436 
15:25	39.8	39.8	39.8	49	22.2	0	1	112	0.00	30.436 
15:30	39.6	39.6	39.6	49	22.0	0	1	112	0.00	30.426 
15:35	39.6	39.6	39.6	47	21.0	1	3	112	0.00	30.426 
15:40	39.8	39.8	39.8	48	21.7	1	2	135	0.00	30.426 
15:45	39.9	39.9	39.9	49	22.3	0	2	135	0.00	30.425 
15:50	40.1	40.1	40.1	49	22.5	0	2	135	0.00	30.425 
15:55	40.1	40.1	40.1	50	23.0	0	2	135	0.00	30.425 
16:00	39.9	39.9	39.9	52	23.7	0	3	68	0.01	30.426 
16:05	39.6	39.6	39.6	52	23.4	0	1	68	0.00	30.426 
16:10	39.3	39.3	39.3	53	23.6	0	1	68	0.00	30.426 
16:15	39.2	39.2	39.2	54	24.0	0	1	68	0.00	30.429 
16:20	38.9	38.9	38.9	54	23.7	0	1	68	0.00	30.429 
16:25	38.8	38.8	38.8	55	24.0	0	1	68	0.00	30.429 
16:30	38.5	38.5	38.5	55	23.8	0	1	68	0.00	30.436 
16:35	38.5	38.5	38.5	55	23.8	0	0	---	0.00	30.436 
16:40	38.2	38.2	38.2	57	24.3	0	0	---	0.00	30.436 
16:45	38.0	38.0	38.0	57	24.1	0	0	---	0.00	30.441 
16:50	37.8	37.8	37.8	56	23.5	0	0	---	0.00	30.441 
16:55	37.5	37.5	37.5	56	23.2	0	0	---	0.00	30.441 
17:00	37.2	37.2	37.2	56	23.0	0	0	---	0.00	30.445 
17:05	36.9	36.9	36.9	57	23.1	0	0	---	0.00	30.445 
17:10	36.6	36.6	36.6	57	22.8	0	0	---	0.00	30.445 
17:15	36.3	36.3	36.3	59	23.4	0	0	---	0.00	30.453 
17:20	36.0	36.0	36.0	60	23.5	0	0	---	0.00	30.453 
17:25	35.6	35.6	35.6	60	23.1	0	0	---	0.00	30.453 
17:30	35.2	35.2	35.2	61	23.1	0	0	---	0.00	30.451 
17:35	34.9	34.9	34.9	63	23.6	0	0	---	0.00	30.451 
17:40	34.4	34.4	34.4	64	23.5	0	0	---	0.00	30.451 
17:45	34.0	34.0	34.0	65	23.5	0	0	---	0.00	30.446 
17:50	33.5	33.5	33.5	65	23.0	0	0	---	0.00	30.446 
17:55	33.1	33.1	33.1	66	23.0	0	0	---	0.00	30.446 
18:00	32.8	32.8	32.8	66	22.7	0	0	---	0.00	30.450 
18:05	32.4	32.4	32.4	67	22.7	0	0	---	0.00	30.450 
18:10	31.9	31.9	31.9	69	22.9	0	0	---	0.00	30.450 
18:15	31.5	31.5	31.5	69	22.5	0	0	---	0.00	30.454 
18:20	31.2	31.2	31.2	70	22.6	0	0	---	0.00	30.454 
18:25	30.9	30.9	30.9	71	22.6	0	0	---	0.00	30.454 
18:30	30.6	30.6	30.6	72	22.7	0	0	---	0.00	30.451 
18:35	30.1	30.1	30.1	73	22.5	0	0	---	0.00	30.451 
18:40	30.0	30.0	30.0	73	22.4	0	0	---	0.00	30.451 
18:45	29.7	29.7	29.7	73	22.1	0	0	---	0.00	30.458 
18:50	29.4	29.4	29.4	74	22.2	0	0	---	0.00	30.458 
18:55	29.1	29.1	29.1	75	22.2	0	0	---	0.00	30.458 
19:00	29.0	29.0	29.0	76	22.4	0	0	---	0.00	30.451 
19:05	28.8	28.8	28.8	76	22.2	0	0	---	0.00	30.451 
19:10	28.7	28.7	28.7	77	22.4	0	0	---	0.00	30.451 
19:15	28.4	28.4	28.4	77	22.1	0	0	---	0.00	30.452 
19:20	28.2	28.2	28.2	77	21.9	0	0	---	0.00	30.452 
19:25	28.2	28.2	28.2	78	22.2	0	0	---	0.00	30.452 
19:30	28.1	28.1	28.1	78	22.1	0	0	---	0.00	30.464 
19:35	27.9	27.9	27.9	79	22.2	0	0	---	0.00	30.464 
19:40	27.8	27.8	27.8	79	22.2	0	0	---	0.00	30.464 
19:45	27.6	27.6	27.6	79	22.0	0	0	---	0.00	30.461 
19:50	27.5	27.5	27.5	79	21.9	0	0	---	0.00	30.461 
19:55	27.3	27.3	27.3	80	22.0	0	0	---	0.00	30.461 
20:00	27.0	27.0	27.0	80	21.7	0	0	---	0.00	30.459 
20:05	26.9	26.9	26.9	80	21.6	0	0	---	0.00	30.459 
20:10	26.7	26.7	26.7	81	21.7	0	0	---	0.00	30.459 
20:15	26.6	26.6	26.6	81	21.6	0	0	---	0.00	30.453 
20:20	26.4	26.4	26.4	82	21.7	0	0	---	0.00	30.453 
20:25	26.4	26.4	26.4	82	21.7	0	0	---	0.00	30.453 
20:30	26.3	26.3	26.3	82	21.6	0	0	---	0.00	30.457 
20:35	26.1	26.1	26.1	82	21.4	0	0	---	0.00	30.457 
20:40	26.1	26.1	26.1	82	21.4	0	0	---	0.00	30.457 
20:45	26.0	26.0	26.0	83	21.6	0	0	---	0.00	30.460 
20:50	26.0	26.0	26.0	83	21.6	0	0	---	0.00	30.460 
20:55	26.0	26.0	26.0	83	21.6	0	0	---	0.00	30.460 
21:00	25.8	25.8	25.8	83	21.4	0	0	---	0.00	30.459 
21:05	25.8	25.8	25.8	84	21.6	0	0	---	0.00	30.459 
21:10	25.7	25.7	25.7	84	21.5	0	0	---	0.00	30.459 
21:15	25.7	25.7	25.7	84	21.5	0	0	---	0.00	30.453 
21:20	25.6	25.6	25.6	84	21.5	0	0	---	0.00	30.453 
21:25	25.4	25.4	25.4	84	21.3	0	0	---	0.00	30.453 
21:30	25.1	25.1	25.1	84	21.0	0	0	---	0.00	30.453 
21:35	25.0	25.0	25.0	84	20.9	0	0	---	0.00	30.453 
21:40	24.8	24.8	24.8	85	20.9	0	0	---	0.00	30.453 
21:45	24.8	24.8	24.8	86	21.2	0	0	---	0.00	30.447 
21:50	24.8	24.8	24.8	86	21.2	0	0	---	0.00	30.447 
21:55	24.7	24.7	24.7	86	21.1	0	0	---	0.00	30.447 
22:00	24.7	24.7	24.7	86	21.1	0	0	---	0.00	30.447 
22:05	24.5	24.5	24.5	87	21.2	0	0	---	0.00	30.447 
22:10	24.5	24.5	24.5	87	21.2	0	0	---	0.00	30.447 
22:15	24.7	24.7	24.7	87	21.4	0	0	---	0.00	30.437 
22:20	24.7	24.7	24.7	87	21.4	0	0	---	0.00	30.437 
22:25	24.7	24.7	24.7	87	21.4	0	0	---	0.00	30.437 
22:30	24.5	24.5	24.5	88	21.5	0	0	---	0.00	30.439 
22:35	24.5	24.5	24.5	88	21.5	0	0	---	0.00	30.439 
22:40	24.4	24.4	24.4	88	21.4	0	0	---	0.00	30.439 
22:45	24.4	24.4	24.4	88	21.4	0	0	---	0.00	30.441 
22:50	24.4	24.4	24.4	88	21.4	0	0	---	0.00	30.441 
22:55	24.4	24.4	24.4	88	21.4	0	0	---	0.00	30.441 
23:00	24.4	24.4	24.4	88	21.4	0	0	---	0.00	30.447 
23:05	24.4	24.4	24.4	88	21.4	0	0	---	0.00	30.447 
23:10	24.4	24.4	24.4	88	21.4	0	0	---	0.00	30.447 
23:15	24.4	24.4	24.4	88	21.4	0	0	---	0.00	30.446 
23:20	24.2	24.2	24.2	88	21.2	0	0	---	0.00	30.446 
23:25	24.2	24.2	24.2	88	21.2	0	0	---	0.00	30.446 
23:30	24.2	24.2	24.2	88	21.2	0	0	---	0.00	30.446 
23:35	24.1	24.1	24.1	88	21.1	0	0	---	0.00	30.446 
23:40	24.1	24.1	24.1	88	21.1	0	0	---	0.00	30.446 
23:45	23.9	23.9	23.9	88	20.9	0	0	---	0.00	30.444 
23:50	23.8	23.8	23.8	88	20.8	0	0	---	0.00	30.444 
23:55	23.8	23.8	23.8	88	20.8	0	0	---	0.00	30.444 

CoCoRaHS
IN-AL-39
A2 Web Hosting
Creative Commons License
GoDaddy
search engine by freefind advanced

loaded 2018-11-16 23:15:05 • last modified 2010-11-18 10:43:29
Privacy PolicyDisclaimer
• wx.awcolley.com is powered by PmWiki v.2002016 •
• all content (unless otherwise noted) © 2018 A W Colley